createdAt,value
2023-04-14T00:02:03.525Z,10.25
2023-04-14T00:04:30.837Z,10.40
2023-04-14T00:06:58.725Z,10.45
2023-04-14T00:09:26.045Z,10.50
2023-04-14T00:11:52.923Z,10.45
2023-04-14T00:14:19.777Z,10.42
2023-04-14T00:16:46.911Z,10.45
2023-04-14T00:19:13.764Z,10.56
2023-04-14T00:21:40.827Z,10.53
2023-04-14T00:24:07.718Z,10.62
2023-04-14T00:26:34.619Z,10.30
2023-04-14T00:29:01.685Z,9.33
2023-04-14T00:31:28.894Z,8.50
2023-04-14T00:33:55.864Z,8.06
2023-04-14T00:36:23.253Z,8.55
2023-04-14T00:38:50.139Z,8.72
2023-04-14T00:41:16.977Z,8.91
2023-04-14T00:43:44.044Z,9.12
2023-04-14T00:46:11.003Z,9.46
2023-04-14T00:48:37.989Z,9.40
2023-04-14T00:51:05.022Z,9.41
2023-04-14T00:53:33.291Z,9.70
2023-04-14T00:56:01.276Z,9.81
2023-04-14T00:58:28.407Z,9.89
2023-04-14T01:00:55.879Z,9.65
2023-04-14T01:03:24.823Z,9.40
2023-04-14T01:05:52.044Z,9.59
2023-04-14T01:08:21.320Z,9.65
2023-04-14T01:10:58.758Z,9.99
2023-04-14T01:13:33.609Z,9.88
2023-04-14T01:16:20.957Z,9.78
2023-04-14T01:18:47.909Z,9.84
2023-04-14T01:21:18.062Z,9.90
2023-04-14T01:24:04.863Z,9.91
2023-04-14T01:26:32.274Z,9.87
2023-04-14T01:29:17.559Z,10.18
2023-04-14T01:31:44.649Z,10.27
2023-04-14T01:34:13.319Z,9.77
2023-04-14T01:36:45.205Z,9.61
2023-04-14T01:39:18.765Z,9.49
2023-04-14T01:41:49.689Z,9.51
2023-04-14T01:44:18.844Z,9.45
2023-04-14T01:46:46.897Z,9.45
2023-04-14T01:49:15.296Z,9.15
2023-04-14T01:51:43.939Z,9.34
2023-04-14T01:54:11.691Z,9.48
2023-04-14T01:56:41.190Z,9.36
2023-04-14T01:59:10.022Z,9.55
2023-04-14T02:01:37.957Z,9.43
2023-04-14T02:04:05.223Z,9.54
2023-04-14T02:06:33.215Z,9.58
2023-04-14T02:09:02.394Z,9.63
2023-04-14T02:11:30.801Z,9.37
2023-04-14T02:14:00.914Z,9.63
2023-04-14T02:16:29.534Z,9.48
2023-04-14T02:18:57.723Z,9.40
2023-04-14T02:21:27.105Z,9.39
2023-04-14T02:23:54.642Z,9.32
2023-04-14T02:26:24.050Z,9.56
2023-04-14T02:28:54.321Z,9.55
2023-04-14T02:31:23.956Z,9.29
2023-04-14T02:33:56.082Z,9.25
2023-04-14T02:36:28.209Z,9.01
2023-04-14T02:38:57.000Z,8.98
2023-04-14T02:41:25.375Z,9.06
2023-04-14T02:43:58.475Z,8.54
2023-04-14T02:46:27.114Z,7.86
2023-04-14T02:48:55.114Z,7.30
2023-04-14T02:51:24.350Z,7.23
2023-04-14T02:53:51.652Z,7.70
2023-04-14T02:56:26.913Z,8.32
2023-04-14T02:58:57.238Z,8.51
2023-04-14T03:01:26.142Z,8.72
2023-04-14T03:03:55.460Z,8.89
2023-04-14T03:06:23.196Z,9.03
2023-04-14T03:08:51.824Z,9.12
2023-04-14T03:11:21.409Z,8.88
2023-04-14T03:13:53.105Z,8.81
2023-04-14T03:16:20.649Z,8.88
2023-04-14T03:18:49.603Z,9.12
2023-04-14T03:21:19.281Z,9.25
2023-04-14T03:23:46.724Z,9.05
2023-04-14T03:26:15.473Z,9.09
2023-04-14T03:28:43.103Z,9.20
2023-04-14T03:31:11.958Z,9.20
2023-04-14T03:33:47.227Z,9.30
2023-04-14T03:36:17.391Z,9.29
2023-04-14T03:38:46.138Z,9.35
2023-04-14T03:41:14.422Z,9.56
2023-04-14T03:43:42.740Z,9.58
2023-04-14T03:46:13.737Z,9.29
2023-04-14T03:48:44.490Z,9.17
2023-04-14T03:51:16.007Z,9.33
2023-04-14T03:53:45.115Z,9.35
2023-04-14T03:56:16.374Z,8.07
2023-04-14T03:58:44.306Z,7.59
2023-04-14T04:01:12.029Z,7.44
2023-04-14T04:03:40.162Z,7.96
2023-04-14T04:06:08.060Z,7.97
2023-04-14T04:08:36.358Z,8.70
2023-04-14T04:11:06.186Z,9.17
2023-04-14T04:13:34.164Z,9.48
2023-04-14T04:16:02.024Z,9.91
2023-04-14T04:18:31.189Z,9.94
2023-04-14T04:20:59.140Z,10.41
2023-04-14T04:23:28.398Z,10.56
2023-04-14T04:25:55.910Z,10.72
2023-04-14T04:28:30.273Z,10.67
2023-04-14T04:30:59.302Z,11.02
2023-04-14T04:33:28.081Z,11.82
2023-04-14T04:35:56.469Z,12.46
2023-04-14T04:38:27.911Z,12.17
2023-04-14T04:40:54.953Z,12.83
2023-04-14T04:43:26.016Z,12.31
2023-04-14T04:45:59.217Z,11.96
2023-04-14T04:48:28.247Z,12.29
2023-04-14T04:50:55.504Z,12.22
2023-04-14T04:53:22.476Z,11.97
2023-04-14T04:55:49.374Z,12.28
2023-04-14T04:58:16.283Z,12.61
2023-04-14T05:00:43.554Z,12.86
2023-04-14T05:03:10.536Z,13.20
2023-04-14T05:05:37.443Z,13.27
2023-04-14T05:08:04.468Z,13.85
2023-04-14T05:10:31.326Z,13.75
2023-04-14T05:12:58.221Z,14.29
2023-04-14T05:15:25.041Z,14.65
2023-04-14T05:17:51.956Z,15.38
2023-04-14T05:20:18.889Z,15.51
2023-04-14T05:22:46.049Z,15.86
2023-04-14T05:25:12.970Z,16.44
2023-04-14T05:27:39.928Z,17.27
2023-04-14T05:30:07.193Z,17.62
2023-04-14T05:32:34.122Z,18.31
2023-04-14T05:35:00.983Z,18.43
2023-04-14T05:37:30.117Z,19.15
2023-04-14T05:39:57.047Z,19.38
2023-04-14T05:42:23.914Z,18.57
2023-04-14T05:44:50.829Z,18.08
2023-04-14T05:47:17.708Z,17.46
2023-04-14T05:49:44.563Z,16.83
2023-04-14T05:52:11.390Z,16.47
2023-04-14T05:54:38.359Z,16.22
2023-04-14T05:57:05.809Z,15.69
2023-04-14T05:59:32.630Z,15.35
2023-04-14T06:01:59.953Z,15.48
2023-04-14T06:04:27.022Z,15.71
2023-04-14T06:06:53.958Z,15.44
2023-04-14T06:09:20.833Z,15.38
2023-04-14T06:11:47.633Z,15.39
2023-04-14T06:14:14.784Z,15.50
2023-04-14T06:16:41.737Z,15.23
2023-04-14T06:19:08.628Z,15.28
2023-04-14T06:21:35.578Z,15.68
2023-04-14T06:24:02.537Z,15.44
2023-04-14T06:26:29.449Z,15.73
2023-04-14T06:28:57.633Z,15.73
2023-04-14T06:31:24.573Z,15.69
2023-04-14T06:33:53.072Z,15.14
2023-04-14T06:36:20.011Z,15.26
2023-04-14T06:38:47.075Z,15.44
2023-04-14T06:41:13.981Z,15.68
2023-04-14T06:43:42.802Z,15.68
2023-04-14T06:46:09.931Z,15.66
2023-04-14T06:48:36.888Z,15.94
2023-04-14T06:51:04.014Z,15.82
2023-04-14T06:53:31.102Z,15.98
2023-04-14T06:56:01.389Z,15.99
2023-04-14T06:58:28.793Z,15.89
2023-04-14T07:00:56.718Z,15.86
2023-04-14T07:03:24.092Z,16.59
2023-04-14T07:05:51.087Z,16.81
2023-04-14T07:08:21.169Z,17.12
2023-04-14T07:10:48.264Z,17.25
2023-04-14T07:13:15.166Z,17.53
2023-04-14T07:15:46.592Z,17.70
2023-04-14T07:18:13.603Z,17.97
2023-04-14T07:20:40.474Z,18.53
2023-04-14T07:23:07.409Z,19.37
2023-04-14T07:25:35.702Z,19.69
2023-04-14T07:28:04.598Z,19.70
2023-04-14T07:30:31.975Z,19.15
2023-04-14T07:32:58.982Z,19.15
2023-04-14T07:35:26.714Z,18.95
2023-04-14T07:37:53.596Z,18.73
2023-04-14T07:40:20.509Z,18.81
2023-04-14T07:42:47.762Z,19.25
2023-04-14T07:45:14.638Z,19.22
2023-04-14T07:47:41.845Z,18.71
2023-04-14T07:50:08.935Z,18.74
2023-04-14T07:52:35.969Z,19.25
2023-04-14T07:55:03.534Z,19.31
2023-04-14T07:57:30.591Z,19.60
2023-04-14T07:59:57.462Z,20.14
2023-04-14T08:02:24.468Z,20.32
2023-04-14T08:04:51.540Z,20.35
2023-04-14T08:07:18.398Z,20.13
2023-04-14T08:09:45.652Z,19.94
2023-04-14T08:12:12.712Z,19.82
2023-04-14T08:14:39.655Z,20.03
2023-04-14T08:17:07.032Z,20.34
2023-04-14T08:19:34.059Z,20.65
2023-04-14T08:22:01.500Z,21.19
2023-04-14T08:24:28.411Z,20.95
2023-04-14T08:26:56.124Z,21.22
2023-04-14T08:29:23.277Z,20.99
2023-04-14T08:31:50.223Z,20.89
2023-04-14T08:34:21.704Z,21.38
2023-04-14T08:36:56.244Z,20.82
2023-04-14T08:39:23.148Z,20.42
2023-04-14T08:41:50.900Z,20.22
2023-04-14T08:44:17.769Z,19.69
2023-04-14T08:46:45.881Z,19.71
2023-04-14T08:49:16.676Z,19.83
2023-04-14T08:51:43.932Z,20.19
2023-04-14T08:54:11.295Z,20.02
2023-04-14T08:56:39.319Z,19.98
2023-04-14T08:59:07.005Z,20.75
2023-04-14T09:01:36.004Z,20.83
2023-04-14T09:04:06.876Z,20.97
2023-04-14T09:06:34.617Z,20.84
2023-04-14T09:09:04.215Z,21.14
2023-04-14T09:11:31.616Z,20.76
2023-04-14T09:14:01.940Z,21.20
2023-04-14T09:16:29.540Z,21.47
2023-04-14T09:18:58.047Z,20.84
2023-04-14T09:21:52.676Z,20.57
2023-04-14T09:24:23.848Z,20.37
2023-04-14T09:26:51.136Z,20.14
2023-04-14T09:29:18.276Z,19.91
2023-04-14T09:31:45.651Z,20.08
2023-04-14T09:34:18.566Z,20.17
2023-04-14T09:37:07.269Z,20.91
2023-04-14T09:39:35.363Z,20.85
2023-04-14T09:42:03.192Z,20.94
2023-04-14T09:44:30.883Z,21.48
2023-04-14T09:46:58.118Z,21.45
2023-04-14T09:49:25.516Z,20.65
2023-04-14T09:52:01.651Z,20.68
2023-04-14T09:54:28.579Z,20.70
2023-04-14T09:56:55.997Z,20.19
2023-04-14T09:59:34.194Z,19.89
2023-04-14T10:02:04.655Z,19.53
2023-04-14T10:04:32.327Z,19.86
2023-04-14T10:06:59.586Z,19.89
2023-04-14T10:09:27.690Z,20.06
2023-04-14T10:12:10.092Z,20.07
2023-04-14T10:14:37.286Z,20.14
2023-04-14T10:17:04.335Z,20.70
2023-04-14T10:19:31.282Z,21.15
2023-04-14T10:21:58.193Z,22.06
2023-04-14T10:24:25.571Z,23.06
2023-04-14T10:26:54.739Z,23.46
2023-04-14T10:29:21.602Z,22.72
2023-04-14T10:31:50.154Z,22.50
2023-04-14T10:34:17.961Z,21.94
2023-04-14T10:36:45.015Z,22.04
2023-04-14T10:39:12.424Z,22.52
2023-04-14T10:41:48.623Z,22.96
2023-04-14T10:44:32.288Z,22.31
2023-04-14T10:47:02.406Z,23.02
2023-04-14T10:49:31.072Z,23.76
2023-04-14T10:51:58.959Z,24.06
2023-04-14T10:54:25.803Z,24.86
2023-04-14T10:57:15.578Z,26.38
2023-04-14T10:59:43.496Z,28.47
2023-04-14T11:02:28.347Z,27.52
2023-04-14T11:04:58.787Z,25.96
2023-04-14T11:07:26.054Z,23.96
2023-04-14T11:09:52.964Z,23.95
2023-04-14T11:12:24.531Z,23.78
2023-04-14T11:14:55.561Z,24.07
2023-04-14T11:17:29.236Z,24.51
2023-04-14T11:19:58.233Z,25.84
2023-04-14T11:22:54.394Z,25.52
2023-04-14T11:25:24.606Z,25.83
2023-04-14T11:27:52.659Z,25.64
2023-04-14T11:30:20.129Z,23.14
2023-04-14T11:32:54.463Z,22.82
2023-04-14T11:35:23.349Z,22.79
2023-04-14T11:37:53.023Z,22.70
2023-04-14T11:40:19.946Z,22.17
2023-04-14T11:42:47.348Z,21.90
2023-04-14T11:45:17.308Z,21.73
2023-04-14T11:47:48.124Z,22.39
2023-04-14T11:50:17.156Z,22.25
2023-04-14T11:52:45.068Z,22.27
2023-04-14T11:55:13.443Z,21.52
2023-04-14T11:57:44.315Z,20.86
2023-04-14T12:00:14.301Z,21.30
2023-04-14T12:02:45.604Z,21.09
2023-04-14T12:05:14.189Z,20.85
2023-04-14T12:07:45.891Z,20.43
2023-04-14T12:10:13.502Z,20.83
2023-04-14T12:12:41.304Z,20.52
2023-04-14T12:15:08.684Z,20.70
2023-04-14T12:17:36.381Z,21.16
2023-04-14T12:20:04.228Z,21.10
2023-04-14T12:22:31.537Z,21.58
2023-04-14T12:24:58.555Z,22.10
2023-04-14T12:27:26.696Z,23.27
2023-04-14T12:29:53.828Z,23.59
2023-04-14T12:32:22.417Z,23.65
2023-04-14T12:34:54.131Z,24.00
2023-04-14T12:37:25.262Z,24.20
2023-04-14T12:39:53.389Z,24.69
2023-04-14T12:42:20.327Z,24.06
2023-04-14T12:45:00.653Z,23.28
2023-04-14T12:47:34.371Z,22.37
2023-04-14T12:50:02.428Z,21.97
2023-04-14T12:52:47.725Z,21.36
2023-04-14T12:55:28.603Z,21.08
2023-04-14T12:57:56.206Z,21.09
2023-04-14T13:00:24.018Z,20.84
2023-04-14T13:02:53.875Z,20.35
2023-04-14T13:05:21.173Z,20.52
2023-04-14T13:07:48.005Z,20.73
2023-04-14T13:10:15.231Z,21.22
2023-04-14T13:12:43.124Z,21.86
2023-04-14T13:15:31.132Z,22.65
2023-04-14T13:17:57.387Z,23.33
2023-04-14T13:20:24.252Z,22.99
2023-04-14T13:22:51.122Z,23.97
2023-04-14T13:25:17.992Z,24.59
2023-04-14T13:27:44.883Z,24.29
2023-04-14T13:30:11.983Z,24.48
2023-04-14T13:32:38.901Z,24.29
2023-04-14T13:35:06.054Z,24.15
2023-04-14T13:37:32.888Z,24.51
2023-04-14T13:39:59.753Z,25.24
2023-04-14T13:42:26.794Z,25.19
2023-04-14T13:44:53.674Z,25.24
2023-04-14T13:47:20.643Z,24.98
2023-04-14T13:49:47.537Z,24.54
2023-04-14T13:52:14.442Z,24.53
2023-04-14T13:54:41.590Z,25.04
2023-04-14T13:57:08.609Z,24.77
2023-04-14T13:59:35.520Z,23.85
2023-04-14T14:02:02.897Z,24.02
2023-04-14T14:04:30.179Z,24.14
2023-04-14T14:06:57.109Z,23.69
2023-04-14T14:09:24.199Z,23.15
2023-04-14T14:11:51.214Z,23.28
2023-04-14T14:14:18.455Z,23.10
2023-04-14T14:16:45.472Z,23.06
2023-04-14T14:19:16.973Z,23.28
2023-04-14T14:21:44.275Z,23.09
2023-04-14T14:24:11.379Z,23.39
2023-04-14T14:26:38.200Z,23.60
2023-04-14T14:29:05.172Z,23.60
2023-04-14T14:31:32.108Z,23.80
2023-04-14T14:33:59.201Z,23.41
2023-04-14T14:36:26.921Z,23.34
2023-04-14T14:38:53.847Z,23.28
2023-04-14T14:41:20.743Z,22.95
2023-04-14T14:43:47.624Z,22.95
2023-04-14T14:46:14.578Z,22.52
2023-04-14T14:48:41.643Z,22.41
2023-04-14T14:51:08.575Z,21.16
2023-04-14T14:53:36.274Z,20.96
2023-04-14T14:56:03.460Z,20.59
2023-04-14T14:58:30.339Z,20.68
2023-04-14T15:00:57.332Z,20.58
2023-04-14T15:03:24.569Z,20.91
2023-04-14T15:05:54.289Z,21.19
2023-04-14T15:08:21.680Z,21.26
2023-04-14T15:10:48.532Z,21.03
2023-04-14T15:13:15.488Z,20.06
2023-04-14T15:15:42.748Z,19.31
2023-04-14T15:18:10.611Z,18.95
2023-04-14T15:20:37.661Z,18.64
2023-04-14T15:23:04.675Z,18.62
2023-04-14T15:25:31.622Z,18.45
2023-04-14T15:27:58.498Z,18.40
2023-04-14T15:30:25.960Z,18.52
2023-04-14T15:32:53.566Z,18.75
2023-04-14T15:35:20.570Z,19.26
2023-04-14T15:37:47.889Z,19.48
2023-04-14T15:40:14.854Z,19.95
2023-04-14T15:42:41.789Z,20.19
2023-04-14T15:45:09.074Z,20.29
2023-04-14T15:47:35.982Z,20.23
2023-04-14T15:50:09.427Z,20.59
2023-04-14T15:52:37.806Z,20.42
2023-04-14T15:55:04.964Z,20.60
2023-04-14T15:57:32.033Z,20.52
2023-04-14T15:59:59.879Z,20.48
2023-04-14T16:02:28.612Z,20.58
2023-04-14T16:04:55.668Z,20.74
2023-04-14T16:07:22.569Z,20.77
2023-04-14T16:09:49.429Z,20.84
2023-04-14T16:12:16.309Z,20.83
2023-04-14T16:14:43.145Z,20.79
2023-04-14T16:17:10.097Z,21.14
2023-04-14T16:19:36.982Z,21.12
2023-04-14T16:22:03.891Z,21.00
2023-04-14T16:24:30.870Z,20.94
2023-04-14T16:26:58.234Z,20.90
2023-04-14T16:29:25.147Z,20.76
2023-04-14T16:31:52.144Z,20.60
2023-04-14T16:34:20.517Z,20.89
2023-04-14T16:36:47.483Z,20.73
2023-04-14T16:39:14.722Z,20.58
2023-04-14T16:41:42.052Z,20.53
2023-04-14T16:44:08.991Z,20.48
2023-04-14T16:46:36.201Z,19.95
2023-04-14T16:49:03.259Z,20.29
2023-04-14T16:51:30.346Z,20.38
2023-04-14T16:53:57.500Z,20.68
2023-04-14T16:56:24.606Z,20.81
2023-04-14T16:58:51.834Z,20.47
2023-04-14T17:01:18.809Z,20.25
2023-04-14T17:03:46.071Z,20.61
2023-04-14T17:06:13.198Z,20.61
2023-04-14T17:08:40.050Z,20.30
2023-04-14T17:11:07.348Z,19.95
2023-04-14T17:13:34.812Z,20.34
2023-04-14T17:16:08.346Z,20.04
2023-04-14T17:18:36.666Z,19.52
2023-04-14T17:21:03.914Z,20.00
2023-04-14T17:23:30.823Z,20.28
2023-04-14T17:25:58.817Z,19.80
2023-04-14T17:28:27.380Z,19.46
2023-04-14T17:30:54.251Z,19.32
2023-04-14T17:33:22.173Z,19.20
2023-04-14T17:35:49.154Z,18.94
2023-04-14T17:38:16.085Z,18.80
2023-04-14T17:40:42.970Z,18.81
2023-04-14T17:43:09.905Z,18.77
2023-04-14T17:45:40.111Z,18.69
2023-04-14T17:48:07.568Z,18.66
2023-04-14T17:50:35.974Z,18.52
2023-04-14T17:53:02.919Z,18.74
2023-04-14T17:55:29.827Z,18.82
2023-04-14T17:57:57.814Z,18.79
2023-04-14T18:00:24.713Z,18.77
2023-04-14T18:02:52.288Z,18.91
2023-04-14T18:05:19.252Z,18.81
2023-04-14T18:07:47.028Z,19.22
2023-04-14T18:10:14.003Z,19.42
2023-04-14T18:12:40.955Z,19.37
2023-04-14T18:15:08.109Z,19.43
2023-04-14T18:17:36.642Z,19.17
2023-04-14T18:20:04.616Z,18.70
2023-04-14T18:22:31.773Z,18.53
2023-04-14T18:24:58.829Z,18.90
2023-04-14T18:29:55.617Z,18.70
2023-04-14T18:32:25.332Z,18.72
2023-04-14T18:34:52.831Z,18.76
2023-04-14T18:37:19.780Z,18.29
2023-04-14T18:39:46.762Z,18.57
2023-04-14T18:42:14.812Z,18.71
2023-04-14T18:44:41.728Z,18.88
2023-04-14T18:47:09.683Z,18.71
2023-04-14T18:49:36.505Z,18.77
2023-04-14T18:52:03.998Z,18.84
2023-04-14T18:54:30.955Z,18.21
2023-04-14T18:56:58.191Z,18.69
2023-04-14T18:59:25.066Z,18.94
2023-04-14T19:01:52.998Z,18.90
2023-04-14T19:04:20.980Z,18.98
2023-04-14T19:06:48.603Z,19.02
2023-04-14T19:09:15.953Z,19.02
2023-04-14T19:11:43.022Z,18.56
2023-04-14T19:14:09.925Z,18.71
2023-04-14T19:16:37.101Z,18.87
2023-04-14T19:19:04.637Z,18.82
2023-04-14T19:21:32.083Z,18.75
2023-04-14T19:23:59.337Z,18.72
2023-04-14T19:26:26.310Z,18.28
2023-04-14T19:28:53.965Z,17.98
2023-04-14T19:31:21.826Z,18.20
2023-04-14T19:33:49.253Z,18.30
2023-04-14T19:36:17.405Z,18.53
2023-04-14T19:38:44.409Z,18.52
2023-04-14T19:41:11.563Z,18.41
2023-04-14T19:43:38.607Z,18.53
2023-04-14T19:46:05.710Z,18.18
2023-04-14T19:48:33.316Z,18.23
2023-04-14T19:51:00.659Z,18.32
2023-04-14T19:53:28.818Z,18.46
2023-04-14T19:55:57.113Z,18.51
2023-04-14T19:58:24.892Z,18.47
2023-04-14T20:00:53.490Z,17.77
2023-04-14T20:03:20.507Z,17.63
2023-04-14T20:05:54.941Z,17.87
2023-04-14T20:08:22.873Z,17.97
2023-04-14T20:10:53.368Z,17.86
2023-04-14T20:13:21.438Z,17.79
2023-04-14T20:15:49.376Z,17.56
2023-04-14T20:18:18.998Z,16.28
2023-04-14T20:20:48.975Z,16.05
2023-04-14T20:23:16.221Z,16.21
2023-04-14T20:25:44.098Z,16.73
2023-04-14T20:28:11.187Z,17.12
2023-04-14T20:30:38.253Z,17.33
2023-04-14T20:33:05.940Z,16.93
2023-04-14T20:35:36.266Z,16.70
2023-04-14T20:38:03.525Z,16.05
2023-04-14T20:40:31.072Z,16.09
2023-04-14T20:42:57.943Z,16.78
2023-04-14T20:45:25.457Z,16.94
2023-04-14T20:47:52.598Z,16.83
2023-04-14T20:50:19.743Z,16.58
2023-04-14T20:52:46.687Z,16.85
2023-04-14T20:55:13.645Z,16.79
2023-04-14T20:57:41.052Z,16.52
2023-04-14T21:00:15.512Z,15.95
2023-04-14T21:02:43.760Z,15.93
2023-04-14T21:05:11.273Z,16.14
2023-04-14T21:07:39.862Z,16.34
2023-04-14T21:10:07.214Z,16.57
2023-04-14T21:12:35.833Z,16.49
2023-04-14T21:15:40.319Z,16.51
2023-04-14T21:17:52.256Z,16.44
2023-04-14T21:20:19.165Z,16.64
2023-04-14T21:22:46.021Z,16.77
2023-04-14T21:25:12.925Z,16.59
2023-04-14T21:27:40.073Z,16.55
2023-04-14T21:30:07.397Z,16.49
2023-04-14T21:32:34.302Z,15.87
2023-04-14T21:35:01.282Z,15.51
2023-04-14T21:37:28.288Z,15.82
2023-04-14T21:39:55.489Z,15.91
2023-04-14T21:42:22.387Z,15.76
2023-04-14T21:44:49.430Z,15.79
2023-04-14T21:47:16.513Z,15.50
2023-04-14T21:49:43.406Z,15.57
2023-04-14T21:52:10.294Z,15.66
2023-04-14T21:54:41.417Z,15.50
2023-04-14T21:57:08.321Z,15.61
2023-04-14T21:59:35.235Z,15.44
2023-04-14T22:02:02.330Z,15.52
2023-04-14T22:04:36.497Z,15.35
2023-04-14T22:07:05.296Z,15.45
2023-04-14T22:09:33.454Z,15.71
2023-04-14T22:12:00.511Z,15.60
2023-04-14T22:14:27.778Z,15.58
2023-04-14T22:16:55.216Z,15.88
2023-04-14T22:19:22.117Z,15.68
2023-04-14T22:21:49.912Z,15.60
2023-04-14T22:24:16.850Z,15.59
2023-04-14T22:26:43.763Z,15.52
2023-04-14T22:29:11.620Z,15.53
2023-04-14T22:31:38.776Z,15.74
2023-04-14T22:34:05.707Z,15.58
2023-04-14T22:36:34.022Z,15.39
2023-04-14T22:39:01.419Z,15.74
2023-04-14T22:41:28.442Z,16.02
2023-04-14T22:43:55.554Z,15.64
2023-04-14T22:46:22.460Z,15.55
2023-04-14T22:48:49.646Z,15.67
2023-04-14T22:51:17.284Z,15.27
2023-04-14T22:53:44.172Z,15.35
2023-04-14T22:56:11.603Z,15.43
2023-04-14T22:58:41.076Z,15.50
2023-04-14T23:01:18.944Z,15.27
2023-04-14T23:03:50.124Z,15.43
2023-04-14T23:06:17.620Z,15.38
2023-04-14T23:08:44.488Z,15.20
2023-04-14T23:11:11.545Z,15.40
2023-04-14T23:13:38.544Z,15.57
2023-04-14T23:16:05.994Z,15.06
2023-04-14T23:18:32.957Z,14.85
2023-04-14T23:20:59.787Z,14.71
2023-04-14T23:23:27.450Z,14.57
2023-04-14T23:25:55.780Z,14.51
2023-04-14T23:28:22.751Z,14.52
2023-04-14T23:30:49.604Z,14.93
2023-04-14T23:33:16.411Z,15.01
2023-04-14T23:35:43.295Z,15.10
2023-04-14T23:38:10.205Z,15.11
2023-04-14T23:40:37.359Z,15.08
2023-04-14T23:43:05.172Z,14.76
2023-04-14T23:45:37.253Z,14.96
2023-04-14T23:48:04.854Z,14.82
2023-04-14T23:51:00.690Z,14.68
2023-04-14T23:53:20.221Z,14.58
2023-04-14T23:55:47.743Z,14.80
2023-04-14T23:58:26.029Z,14.63
